Time;durP1;ratioP1;P1;durP2;ratioP2;P2;SDS_P1;SDS_P2;PMS_P1;PMS_P2;Temp;Humidity;BMP_temperature;BMP_pressure;BME280_temperature;BME280_humidity;BME280_pressure;Samples;Min_cycle;Max_cycle;Signal;HPM_P1;HPM_P2
2022/06/22 00:00:38;;;;;;;1.98;0.50;;;;;;;12.18;100.00;98035.94;1735166;81;21064;-68
2022/06/22 00:03:06;;;;;;;3.50;0.45;;;;;;;12.18;100.00;98024.47;1746709;80;21696;-68
2022/06/22 00:05:37;;;;;;;3.17;0.60;;;;;;;12.16;100.00;98023.97;1757062;80;21145;-65
2022/06/22 00:08:07;;;;;;;1.52;0.50;;;;;;;12.10;100.00;98019.81;1753793;80;21026;-65
2022/06/22 00:10:41;;;;;;;1.35;0.30;;;;;;;12.03;100.00;98018.14;1754679;80;21576;-66
2022/06/22 00:13:23;;;;;;;1.45;0.50;;;;;;;12.03;100.00;98020.87;1755802;81;21571;-66
2022/06/22 00:15:53;;;;;;;3.70;0.50;;;;;;;12.04;100.00;98009.40;1756382;80;21141;-66
2022/06/22 00:18:43;;;;;;;1.07;0.60;;;;;;;12.00;100.00;98009.80;1756323;80;21031;-65
2022/06/22 00:21:35;;;;;;;1.90;0.37;;;;;;;11.94;100.00;98003.14;1742946;80;21055;-66
2022/06/22 00:24:18;;;;;;;2.75;0.60;;;;;;;11.91;100.00;98005.15;1748680;80;21030;-66
2022/06/22 00:26:48;;;;;;;4.03;0.60;;;;;;;11.91;100.00;97995.61;1729382;80;21503;-66
2022/06/22 00:29:18;;;;;;;2.15;0.33;;;;;;;11.86;100.00;98002.60;1770859;80;21461;-66
2022/06/22 00:31:50;;;;;;;0.75;0.40;;;;;;;11.80;100.00;97993.52;1752690;80;21110;-66
2022/06/22 00:34:23;;;;;;;2.87;0.40;;;;;;;11.78;100.00;97987.59;1753833;80;21026;-65
2022/06/22 00:37:18;;;;;;;2.35;0.40;;;;;;;11.80;100.00;97986.14;1740654;80;21566;-66
2022/06/22 00:39:47;;;;;;;3.33;0.60;;;;;;;11.79;100.00;97980.47;1729260;80;21451;-66
2022/06/22 00:42:39;;;;;;;2.80;0.60;;;;;;;11.70;100.00;97982.35;1752998;80;21054;-65
2022/06/22 00:45:12;;;;;;;2.55;0.57;;;;;;;11.70;100.00;97982.35;1753498;80;21398;-65
2022/06/22 00:48:05;;;;;;;0.80;0.30;;;;;;;11.73;100.00;97966.75;1737170;80;21532;-65
2022/06/22 00:50:39;;;;;;;1.60;0.35;;;;;;;11.74;100.00;97970.28;1752996;80;21098;-65
2022/06/22 00:53:25;;;;;;;1.50;0.50;;;;;;;11.70;100.00;97966.55;1739574;81;21045;-65
2022/06/22 00:56:15;;;;;;;1.52;0.37;;;;;;;11.66;100.00;97957.42;1744771;81;21117;-65
2022/06/22 00:59:08;;;;;;;1.50;0.33;;;;;;;11.63;100.00;97962.15;1729587;81;21063;-65
2022/06/22 01:01:59;;;;;;;1.67;0.45;;;;;;;11.57;100.00;97962.08;1734443;81;21110;-65
2022/06/22 01:04:51;;;;;;;2.98;0.30;;;;;;;11.40;100.00;97959.61;1733242;81;21011;-66
2022/06/22 01:07:35;;;;;;;2.80;0.33;;;;;;;11.30;100.00;97959.11;1739429;81;21091;-65
2022/06/22 01:10:23;;;;;;;0.93;0.30;;;;;;;11.25;100.00;97961.98;1714144;81;21052;-65
2022/06/22 01:13:00;;;;;;;0.90;0.50;;;;;;;11.20;100.00;97955.31;1748841;80;21088;-65
2022/06/22 01:15:37;;;;;;;1.10;0.40;;;;;;;11.11;100.00;97949.88;1730085;81;21048;-65
2022/06/22 01:18:13;;;;;;;1.15;0.30;;;;;;;11.08;100.00;97953.79;1740700;81;21467;-66
2022/06/22 01:21:01;;;;;;;3.25;0.40;;;;;;;11.10;100.00;97951.53;1729770;81;21068;-66
2022/06/22 01:23:52;;;;;;;3.83;0.35;;;;;;;11.12;100.00;97946.59;1739406;81;21088;-67
2022/06/22 01:26:47;;;;;;;1.20;0.30;;;;;;;11.09;100.00;97955.41;1740916;82;21079;-66
2022/06/22 01:29:24;;;;;;;2.33;0.30;;;;;;;11.07;100.00;97947.53;1742711;81;21016;-67
2022/06/22 01:32:00;;;;;;;2.90;0.37;;;;;;;11.16;100.00;97945.62;1736954;81;21080;-66
2022/06/22 01:34:40;;;;;;;1.30;0.40;;;;;;;11.24;100.00;97938.02;1714863;81;20987;-67
2022/06/22 01:37:23;;;;;;;2.10;0.30;;;;;;;11.30;100.00;97942.77;1733605;81;21035;-66
2022/06/22 01:39:50;;;;;;;0.90;0.35;;;;;;;11.33;100.00;97936.13;1738978;81;20995;-67
2022/06/22 01:42:25;;;;;;;1.07;0.30;;;;;;;11.41;100.00;97936.66;1735994;80;21080;-67
2022/06/22 01:45:02;;;;;;;1.22;0.30;;;;;;;11.49;100.00;97920.89;1730959;81;21015;-67
2022/06/22 01:47:52;;;;;;;2.77;0.50;;;;;;;11.58;100.00;97917.36;1718270;82;21043;-67
2022/06/22 01:50:42;;;;;;;1.60;0.40;;;;;;;11.63;100.00;97922.08;1717318;80;21023;-67
2022/06/22 01:53:20;;;;;;;1.77;0.50;;;;;;;11.65;100.00;97920.41;1750359;81;21647;-66
2022/06/22 01:55:58;;;;;;;1.45;0.35;;;;;;;11.68;100.00;97926.02;1720693;81;21650;-67
2022/06/22 01:58:49;;;;;;;1.25;0.28;;;;;;;11.73;100.00;97914.95;1743358;81;21034;-67
2022/06/22 02:01:33;;;;;;;0.80;0.40;;;;;;;11.75;100.00;97916.01;1753766;80;21051;-66
2022/06/22 02:04:20;;;;;;;2.12;0.40;;;;;;;11.72;100.00;97919.38;1726284;82;21054;-66
2022/06/22 02:10:12;;;;;;;0.80;0.40;;;;;;;11.67;100.00;97923.59;1747785;81;21523;-66
2022/06/22 02:12:47;;;;;;;3.15;0.40;;;;;;;11.63;100.00;97926.16;1732586;81;21078;-66
2022/06/22 02:15:41;;;;;;;2.50;0.40;;;;;;;11.57;100.00;97925.29;1735716;82;21665;-66
2022/06/22 02:18:15;;;;;;;1.25;0.30;;;;;;;11.49;100.00;97929.06;1739212;81;21054;-66
2022/06/22 02:20:42;;;;;;;2.67;0.30;;;;;;;11.47;100.00;97931.32;1748776;81;21015;-66
2022/06/22 02:23:20;;;;;;;;;;;;;;;11.47;100.00;97932.68;1741832;81;21109;-66
2022/06/22 02:25:55;;;;;;;1.62;0.40;;;;;;;11.47;100.00;97929.95;1745126;81;20401;-66
2022/06/22 02:28:22;;;;;;;3.35;0.40;;;;;;;11.45;100.00;97928.09;1741995;81;21508;-66
2022/06/22 02:30:48;;;;;;;3.35;0.30;;;;;;;11.48;100.00;97926.64;1764033;81;21063;-66
2022/06/22 02:33:15;;;;;;;2.98;0.60;;;;;;;11.49;100.00;97930.42;1748882;81;21046;-66
2022/06/22 02:35:41;;;;;;;1.90;0.30;;;;;;;11.56;100.00;97934.02;1751506;81;21074;-66
2022/06/22 02:38:09;;;;;;;;;;;;;;;11.63;100.00;97934.89;1756509;81;21101;-66
2022/06/22 02:44:29;;;;;;;;;;;;;;;11.73;100.00;97929.14;1753079;81;20149;-66
2022/06/22 02:45:49;;;;;;;1.72;0.50;;;;;;;11.84;100.00;97929.05;1722262;80;21008;-66
2022/06/22 02:48:24;;;;;;;1.00;0.40;;;;;;;11.89;100.00;97931.62;1744484;81;21406;-66
2022/06/22 02:50:56;;;;;;;1.85;0.40;;;;;;;11.85;100.00;97928.73;1751602;81;21118;-66
2022/06/22 02:53:33;;;;;;;1.00;0.47;;;;;;;11.87;100.00;97936.02;1746100;81;21121;-66
2022/06/22 02:56:02;;;;;;;1.52;0.40;;;;;;;11.95;100.00;97927.59;1738501;81;21490;-67
2022/06/22 02:58:32;;;;;;;2.25;0.42;;;;;;;12.03;100.00;97930.06;1740143;81;21460;-67
2022/06/22 03:01:12;;;;;;;2.33;0.40;;;;;;;12.04;100.00;97922.94;1736309;81;21043;-67
2022/06/22 03:03:42;;;;;;;1.07;0.40;;;;;;;12.08;100.00;97921.72;1744862;81;21104;-67
2022/06/22 03:06:11;;;;;;;2.05;0.50;;;;;;;12.14;100.00;97928.59;1745024;81;21059;-67
2022/06/22 03:08:37;;;;;;;1.30;0.40;;;;;;;12.25;100.00;97921.66;1743813;81;21082;-67
2022/06/22 03:11:05;;;;;;;;;;;;;;;12.32;100.00;97923.33;1744099;82;21043;-67
2022/06/22 03:13:41;;;;;;;;;;;;;;;12.37;100.00;97928.03;1732899;81;20158;-67
2022/06/22 03:16:28;;;;;;;1.10;0.40;;;;;;;12.28;100.00;97940.91;1740095;81;20117;-67
2022/06/22 03:18:56;;;;;;;0.53;0.30;;;;;;;12.31;100.00;97946.27;1729844;81;21097;-66
2022/06/22 03:21:23;;;;;;;4.25;0.50;;;;;;;12.36;100.00;97941.42;1745442;81;21573;-66
2022/06/22 03:23:58;;;;;;;1.47;0.30;;;;;;;12.36;100.00;97940.06;1715740;81;21109;-66
2022/06/22 03:26:50;;;;;;;0.85;0.30;;;;;;;12.35;100.00;97943.13;1738347;81;21016;-66
2022/06/22 03:29:28;;;;;;;2.72;0.50;;;;;;;12.38;100.00;97937.02;1730205;81;21015;-66
2022/06/22 03:32:00;;;;;;;2.45;0.50;;;;;;;12.45;100.00;97936.75;1743564;81;21531;-66
2022/06/22 03:34:48;;;;;;;1.30;0.60;;;;;;;12.52;100.00;97936.80;1743020;81;20992;-67
2022/06/22 03:37:23;;;;;;;2.17;0.50;;;;;;;12.52;100.00;97940.89;1749903;81;21064;-67
2022/06/22 03:39:55;;;;;;;0.95;0.57;;;;;;;12.48;100.00;97943.48;1744138;81;21014;-67
2022/06/22 03:42:29;;;;;;;1.52;0.40;;;;;;;12.47;100.00;97944.03;1720292;81;21636;-67
2022/06/22 03:45:04;;;;;;;2.02;0.40;;;;;;;12.53;100.00;97945.23;1733988;81;21074;-66
2022/06/22 03:47:39;;;;;;;1.57;0.40;;;;;;;12.60;100.00;97945.52;1744256;81;21474;-65
2022/06/22 03:50:20;;;;;;;1.25;0.50;;;;;;;12.59;100.00;97943.91;1716301;81;20999;-65
2022/06/22 03:52:54;;;;;;;1.35;0.50;;;;;;;12.59;100.00;97947.45;1742150;81;20986;-66
2022/06/22 03:55:25;;;;;;;1.25;0.33;;;;;;;12.64;100.00;97957.39;1753895;80;21028;-67
2022/06/22 03:57:53;;;;;;;0.62;0.47;;;;;;;12.70;100.00;97943.79;1757041;80;21011;-69
2022/06/22 04:00:20;;;;;;;1.60;0.47;;;;;;;12.70;100.00;97949.25;1758225;80;21068;-69
2022/06/22 04:02:47;;;;;;;1.30;0.50;;;;;;;12.65;100.00;97942.03;1760081;80;21403;-69
2022/06/22 04:05:22;;;;;;;1.00;0.60;;;;;;;12.60;100.00;97949.06;1756821;80;21113;-69
2022/06/22 04:07:49;;;;;;;1.90;0.60;;;;;;;12.60;100.00;97953.71;1746655;80;21019;-64
2022/06/22 04:10:45;;;;;;;1.00;0.60;;;;;;;12.65;100.00;97948.86;1757839;80;21090;-64
2022/06/22 04:13:20;;;;;;;2.37;0.50;;;;;;;12.66;100.00;97951.03;1759289;80;21062;-66
2022/06/22 04:16:03;;;;;;;1.90;0.60;;;;;;;12.68;100.00;97945.47;1759245;80;21098;-64
2022/06/22 04:18:43;;;;;;;3.83;0.50;;;;;;;12.73;100.00;97945.86;1756893;80;21086;-65
2022/06/22 04:21:12;;;;;;;1.17;0.50;;;;;;;12.77;100.00;97944.88;1753150;80;21052;-64
2022/06/22 04:23:43;;;;;;;2.95;0.50;;;;;;;12.86;100.00;97941.52;1725050;81;21524;-63
2022/06/22 04:26:29;;;;;;;1.25;0.50;;;;;;;13.01;100.00;97948.91;1756368;80;21042;-63
2022/06/22 04:29:04;;;;;;;1.20;0.45;;;;;;;13.15;100.00;97949.50;1745329;80;21018;-68
2022/06/22 04:31:34;;;;;;;1.67;0.45;;;;;;;13.20;100.00;97948.76;1754306;80;21046;-67
2022/06/22 04:34:10;;;;;;;3.25;0.55;;;;;;;13.34;100.00;97948.50;1748158;80;21093;-68
2022/06/22 04:36:50;;;;;;;1.10;0.35;;;;;;;13.43;100.00;97957.42;1725850;82;21592;-65
2022/06/22 04:39:33;;;;;;;0.80;0.50;;;;;;;13.43;100.00;97954.12;1755193;80;21011;-64
2022/06/22 04:42:03;;;;;;;1.77;0.50;;;;;;;13.43;100.00;97955.48;1751920;80;21011;-67
2022/06/22 04:44:37;;;;;;;1.80;0.30;;;;;;;13.56;100.00;97959.11;1747808;80;21072;-68
2022/06/22 04:47:18;;;;;;;1.80;0.50;;;;;;;13.74;100.00;97963.87;1752645;81;21062;-69
2022/06/22 04:49:55;;;;;;;3.87;0.60;;;;;;;13.75;100.00;97949.04;1751134;80;21494;-67
2022/06/22 04:52:43;;;;;;;;;;;;;;;13.75;100.00;97955.88;1723489;82;21835;-65
2022/06/22 04:55:14;;;;;;;0.90;0.37;;;;;;;13.82;100.00;97955.57;1655803;85;20358;-60
2022/06/22 04:57:42;;;;;;;1.75;0.40;;;;;;;13.81;100.00;97964.93;1739020;82;21491;-64
2022/06/22 05:00:17;;;;;;;2.25;0.45;;;;;;;13.84;100.00;97977.93;1733837;81;21314;-64
2022/06/22 05:02:43;;;;;;;1.95;0.45;;;;;;;13.90;100.00;97966.20;1741648;82;21019;-64
2022/06/22 05:05:27;;;;;;;;;;;;;;;13.90;100.00;97955.27;1740977;82;21045;-61
2022/06/22 05:08:14;;;;;;;1.32;0.35;;;;;;;13.90;100.00;97964.84;1715699;82;20131;-60
2022/06/22 05:10:55;;;;;;;0.90;0.60;;;;;;;13.80;100.00;97974.27;1736894;81;21090;-63
2022/06/22 05:13:42;;;;;;;1.80;0.40;;;;;;;13.73;100.00;97974.00;1729579;81;21020;-61
2022/06/22 05:16:13;;;;;;;1.33;0.50;;;;;;;13.71;100.00;97974.11;1727854;82;21649;-65
2022/06/22 05:18:41;;;;;;;1.40;0.50;;;;;;;13.79;100.00;97974.58;1728281;82;21106;-61
2022/06/22 05:21:19;;;;;;;1.75;0.50;;;;;;;13.75;100.00;97977.75;1743056;82;21547;-62
2022/06/22 05:23:51;;;;;;;1.27;0.50;;;;;;;13.63;100.00;97973.05;1740325;81;21019;-62
2022/06/22 05:26:18;;;;;;;2.72;0.47;;;;;;;13.62;100.00;97971.44;1734264;82;21074;-65
2022/06/22 05:28:50;;;;;;;0.80;0.40;;;;;;;13.70;100.00;97976.60;1743727;82;21016;-70
2022/06/22 05:31:29;;;;;;;3.17;0.65;;;;;;;13.76;100.00;97971.95;1751219;81;21058;-63
2022/06/22 05:34:00;;;;;;;2.25;0.50;;;;;;;13.84;100.00;97973.02;1743114;81;21617;-63
2022/06/22 05:36:26;;;;;;;2.45;0.50;;;;;;;13.96;100.00;97964.28;1735479;81;21032;-62
2022/06/22 05:38:54;;;;;;;1.00;0.45;;;;;;;14.19;100.00;97961.18;1755402;81;21482;-63
2022/06/22 05:41:29;;;;;;;1.42;0.55;;;;;;;14.34;100.00;97954.53;1748711;81;21054;-64
2022/06/22 05:43:58;;;;;;;1.62;0.50;;;;;;;14.24;100.00;97964.48;1737513;81;21020;-64
2022/06/22 05:46:25;;;;;;;1.40;0.42;;;;;;;14.05;100.00;97958.75;1744307;80;21032;-63
2022/06/22 05:48:51;;;;;;;1.37;0.40;;;;;;;13.88;100.00;97963.02;1736446;81;21020;-63
2022/06/22 05:51:27;;;;;;;;;;;;;;;13.72;100.00;97974.32;1742716;81;21008;-66
2022/06/22 05:54:01;;;;;;;2.10;0.70;;;;;;;13.68;100.00;97974.19;1753859;81;20411;-63
2022/06/22 05:56:44;;;;;;;2.55;0.60;;;;;;;13.54;100.00;97982.42;1702639;83;21487;-65
2022/06/22 05:59:28;;;;;;;1.45;0.57;;;;;;;13.58;100.00;97988.27;1737163;81;21542;-67
2022/06/22 06:02:18;;;;;;;0.88;0.50;;;;;;;13.66;100.00;97987.41;1732963;81;21651;-67
2022/06/22 06:04:58;;;;;;;1.17;0.50;;;;;;;13.71;100.00;97988.56;1735206;82;21066;-66
2022/06/22 06:08:47;;;;;;;2.60;0.60;;;;;;;13.71;100.00;97989.15;1811349;78;23724;-64
2022/06/22 06:11:22;;;;;;;3.25;0.80;;;;;;;13.71;100.00;97989.15;1767624;80;21549;-64
2022/06/22 06:13:58;;;;;;;2.33;0.60;;;;;;;13.70;100.00;98000.66;1756137;81;21401;-68
2022/06/22 06:16:26;;;;;;;1.45;0.60;;;;;;;13.63;100.00;98003.68;1729874;80;21411;-63
2022/06/22 06:18:56;;;;;;;2.80;0.80;;;;;;;13.56;100.00;97997.94;1752373;80;21031;-65
2022/06/22 06:21:23;;;;;;;1.50;0.50;;;;;;;13.55;100.00;97997.70;1759650;80;21041;-63
2022/06/22 06:24:02;;;;;;;2.10;0.80;;;;;;;13.54;100.00;97994.16;1754771;81;20963;-63
2022/06/22 06:27:48;;;;;;;1.50;0.60;;;;;;;13.56;100.00;97997.38;1745879;80;21680;-64
2022/06/22 06:29:49;;;;;;;0.80;0.40;;;;;;;13.65;100.00;97997.30;1733760;81;21002;-63
2022/06/22 06:32:46;;;;;;;2.35;0.75;;;;;;;13.75;100.00;97996.89;1745675;80;21102;-68
2022/06/22 06:35:35;;;;;;;1.05;0.47;;;;;;;13.84;100.00;97995.70;1746965;81;21453;-63
2022/06/22 06:38:21;;;;;;;1.30;0.60;;;;;;;14.07;100.00;98000.80;1752569;80;20970;-68
2022/06/22 06:41:13;;;;;;;1.05;0.60;;;;;;;14.46;100.00;98004.37;1758956;80;21097;-65
2022/06/22 06:43:54;;;;;;;1.55;0.50;;;;;;;14.98;100.00;98001.84;1738117;81;21007;-64
2022/06/22 06:46:38;;;;;;;4.03;0.50;;;;;;;15.28;100.00;97991.43;1747229;80;21059;-66
2022/06/22 06:49:19;;;;;;;1.25;0.70;;;;;;;15.30;100.00;97986.42;1752630;81;21099;-62
2022/06/22 06:52:01;;;;;;;1.90;0.55;;;;;;;15.23;100.00;97985.60;1743531;81;21122;-66
2022/06/22 06:55:07;;;;;;;2.30;0.70;;;;;;;15.17;100.00;97977.39;1752722;80;20988;-61
2022/06/22 06:57:35;;;;;;;2.25;0.70;;;;;;;15.26;100.00;97976.72;1756209;81;21910;-63
2022/06/22 07:00:05;;;;;;;1.02;0.60;;;;;;;15.54;100.00;97971.32;1720051;81;21042;-63
2022/06/22 07:02:37;;;;;;;3.12;0.60;;;;;;;15.76;100.00;97965.33;1719943;83;21097;-63
2022/06/22 07:05:09;;;;;;;2.30;0.65;;;;;;;15.95;100.00;97964.66;1752240;80;21505;-66
2022/06/22 07:07:55;;;;;;;1.22;0.60;;;;;;;16.18;100.00;97958.85;1752111;81;21022;-63
2022/06/22 07:10:42;;;;;;;1.62;0.60;;;;;;;16.59;100.00;97956.22;1743322;81;21559;-64
2022/06/22 07:13:32;;;;;;;1.32;0.60;;;;;;;16.73;100.00;97953.03;1738426;81;21003;-65
2022/06/22 07:16:03;;;;;;;1.32;0.60;;;;;;;17.04;100.00;97952.23;1745403;81;21593;-65
2022/06/22 07:18:35;;;;;;;1.45;0.57;;;;;;;17.34;100.00;97956.86;1745513;81;21408;-63
2022/06/22 07:21:27;;;;;;;1.57;0.50;;;;;;;17.55;100.00;97952.98;1745423;81;21601;-63
2022/06/22 07:24:06;;;;;;;2.70;0.60;;;;;;;17.34;100.00;97953.31;1740588;81;20947;-63
2022/06/22 07:27:01;;;;;;;2.27;0.60;;;;;;;17.16;100.00;97956.23;1740762;81;21047;-65
2022/06/22 07:30:13;;;;;;;1.15;0.60;;;;;;;16.97;100.00;97964.43;1741131;81;20995;-64
2022/06/22 07:33:10;;;;;;;2.80;0.45;;;;;;;16.69;100.00;97974.13;1740440;81;21062;-63
2022/06/22 07:35:54;;;;;;;1.40;0.45;;;;;;;16.56;100.00;97976.73;1740451;81;21042;-63
2022/06/22 07:38:35;;;;;;;1.35;0.65;;;;;;;16.87;100.00;97982.23;1743371;81;21559;-64
2022/06/22 07:41:19;;;;;;;1.62;0.50;;;;;;;17.29;100.00;97987.38;1742155;81;21043;-67
2022/06/22 07:44:07;;;;;;;1.50;0.60;;;;;;;18.00;100.00;97982.65;1738649;81;21023;-64
2022/06/22 07:47:13;;;;;;;0.85;0.47;;;;;;;18.15;100.00;97983.96;1733651;81;21134;-66
2022/06/22 07:49:51;;;;;;;1.35;0.50;;;;;;;18.37;100.00;97981.84;1739480;81;21039;-64
2022/06/22 07:52:22;;;;;;;3.42;0.50;;;;;;;18.56;100.00;97977.49;1742131;81;21054;-65
2022/06/22 07:54:53;;;;;;;1.00;0.50;;;;;;;18.89;100.00;97981.22;1744722;81;21563;-63
2022/06/22 07:57:34;;;;;;;1.77;0.50;;;;;;;19.16;100.00;97977.94;1746226;81;21070;-66
2022/06/22 08:00:19;;;;;;;3.15;0.60;;;;;;;19.21;100.00;97969.33;1740924;81;21572;-65
2022/06/22 08:03:25;;;;;;;2.90;0.72;;;;;;;19.30;100.00;97971.25;1736876;82;21540;-64
2022/06/22 08:05:53;;;;;;;2.47;0.72;;;;;;;19.26;100.00;97966.27;1732008;81;21386;-64
2022/06/22 08:08:34;;;;;;;1.05;0.47;;;;;;;19.30;100.00;97962.98;1736640;82;20992;-62
2022/06/22 08:11:22;;;;;;;3.25;0.50;;;;;;;19.21;100.00;97964.39;1733838;81;21376;-64
2022/06/22 08:14:03;;;;;;;1.07;0.50;;;;;;;19.42;100.00;97968.07;1744475;81;21004;-65
2022/06/22 08:16:37;;;;;;;1.07;0.40;;;;;;;19.22;100.00;97976.44;1735923;81;21035;-64
2022/06/22 08:19:03;;;;;;;1.30;0.60;;;;;;;18.95;100.00;97980.34;1734635;81;21023;-68
2022/06/22 08:21:32;;;;;;;1.35;0.50;;;;;;;18.52;100.00;97971.92;1741403;81;21087;-63
2022/06/22 08:23:58;;;;;;;1.30;0.50;;;;;;;18.50;100.00;97979.70;1727878;81;21035;-64
2022/06/22 08:26:29;;;;;;;1.70;0.60;;;;;;;18.55;100.00;97982.78;1745906;81;21048;-63
2022/06/22 08:28:56;;;;;;;1.75;0.60;;;;;;;18.18;100.00;97985.19;1742602;82;21019;-63
2022/06/22 08:31:28;;;;;;;1.00;0.40;;;;;;;17.93;100.00;97984.69;1730362;81;21596;-62
2022/06/22 08:34:00;;;;;;;2.80;0.40;;;;;;;18.19;100.00;97988.97;1745930;81;21059;-63
2022/06/22 08:36:37;;;;;;;0.90;0.50;;;;;;;18.72;100.00;97989.19;1706809;82;21071;-62
2022/06/22 08:39:23;;;;;;;0.72;0.42;;;;;;;19.09;100.00;97982.53;1727270;82;21021;-63
2022/06/22 08:42:39;;;;;;;1.45;0.45;;;;;;;19.28;100.00;97997.02;1733455;81;21055;-62
2022/06/22 08:45:32;;;;;;;4.00;1.37;;;;;;;19.56;100.00;98000.02;1740945;81;21048;-61
2022/06/22 08:48:13;;;;;;;0.95;0.40;;;;;;;19.72;100.00;97995.13;1740298;81;21050;-63
2022/06/22 08:50:47;;;;;;;2.80;0.42;;;;;;;19.69;100.00;97995.88;1746104;81;21656;-62
2022/06/22 08:53:38;;;;;;;1.22;0.37;;;;;;;19.85;100.00;97995.11;1725137;81;21044;-61
2022/06/22 08:56:27;;;;;;;0.98;0.40;;;;;;;19.91;100.00;97998.34;1742618;81;21721;-63
2022/06/22 08:59:20;;;;;;;1.12;0.40;;;;;;;19.69;100.00;97996.69;1738680;81;21031;-66
2022/06/22 09:02:26;;;;;;;1.10;0.37;;;;;;;19.50;100.00;97995.41;1742320;81;21060;-61
2022/06/22 09:05:16;;;;;;;0.65;0.30;;;;;;;19.30;100.00;98000.80;1734360;81;21507;-61
2022/06/22 09:08:12;;;;;;;1.05;0.42;;;;;;;19.09;100.00;97999.08;1740614;81;21494;-61
2022/06/22 09:10:49;;;;;;;1.05;0.33;;;;;;;18.99;100.00;97993.59;1757302;80;21082;-62
2022/06/22 09:13:47;;;;;;;0.82;0.30;;;;;;;18.98;100.00;98004.42;1757334;81;21519;-65
2022/06/22 09:16:28;;;;;;;1.52;0.40;;;;;;;18.89;100.00;97990.07;1756933;80;21549;-63
2022/06/22 09:19:14;;;;;;;1.55;0.30;;;;;;;18.91;100.00;97995.23;1745669;81;21085;-63
2022/06/22 09:22:15;;;;;;;2.15;0.37;;;;;;;18.97;100.00;97985.48;1746507;80;21621;-61
2022/06/22 09:25:14;;;;;;;1.40;0.40;;;;;;;19.09;100.00;97986.09;1758888;80;20937;-62
2022/06/22 09:27:45;;;;;;;2.40;0.30;;;;;;;19.18;100.00;97985.23;1757583;80;21505;-65
2022/06/22 09:30:38;;;;;;;0.80;0.35;;;;;;;19.25;100.00;97981.21;1757291;81;20979;-65
2022/06/22 09:33:25;;;;;;;1.77;0.50;;;;;;;19.19;100.00;97981.33;1755853;81;20979;-64
2022/06/22 09:36:21;;;;;;;0.98;0.50;;;;;;;19.41;100.00;97983.86;1720149;82;21063;-62
2022/06/22 09:39:11;;;;;;;1.07;0.40;;;;;;;19.60;100.00;97985.69;1699065;84;21051;-64
2022/06/22 09:42:00;;;;;;;1.50;0.40;;;;;;;19.45;100.00;97988.05;1706345;84;21090;-66
2022/06/22 09:44:53;;;;;;;0.37;0.30;;;;;;;19.17;100.00;97985.02;1672767;84;21525;-62
2022/06/22 09:47:31;;;;;;;1.32;0.40;;;;;;;19.04;100.00;97982.25;1646159;85;21013;-61
2022/06/22 09:50:25;;;;;;;2.70;0.35;;;;;;;19.05;99.89;97988.57;1698361;83;21026;-63
2022/06/22 09:53:15;;;;;;;1.00;0.33;;;;;;;19.19;100.00;97985.46;1699133;83;21605;-64
2022/06/22 09:56:22;;;;;;;1.25;0.40;;;;;;;19.43;94.75;97976.57;1699366;83;21126;-63
2022/06/22 09:59:29;;;;;;;1.57;0.40;;;;;;;19.63;100.00;97983.55;1701086;84;21062;-63
2022/06/22 10:02:09;;;;;;;2.70;0.35;;;;;;;19.85;97.75;97997.28;1691922;83;21050;-67
2022/06/22 10:05:07;;;;;;;0.50;0.30;;;;;;;19.74;96.12;98000.48;1695060;83;21584;-64
2022/06/22 10:07:47;;;;;;;2.33;0.30;;;;;;;19.64;100.00;98007.23;1691981;84;21052;-63
2022/06/22 10:10:27;;;;;;;2.40;0.50;;;;;;;19.52;100.00;98007.47;1672822;83;21115;-67
2022/06/22 10:13:05;;;;;;;1.40;0.50;;;;;;;19.47;100.00;98013.30;1683450;84;21032;-63
2022/06/22 10:15:59;;;;;;;1.00;0.40;;;;;;;19.47;100.00;98013.30;1668498;84;21115;-69
2022/06/22 10:19:02;;;;;;;2.83;0.50;;;;;;;19.37;100.00;98013.33;1737680;81;21019;-69
2022/06/22 10:21:45;;;;;;;1.57;0.40;;;;;;;19.26;100.00;98026.15;1742220;81;21035;-68
2022/06/22 10:24:37;;;;;;;0.70;0.40;;;;;;;19.03;100.00;98024.78;1732277;82;21044;-70
2022/06/22 10:27:27;;;;;;;1.07;0.40;;;;;;;18.72;100.00;98025.81;1746695;81;21051;-67
2022/06/22 10:30:25;;;;;;;1.77;0.40;;;;;;;18.38;100.00;98032.23;1745881;81;21072;-69
2022/06/22 10:33:10;;;;;;;1.50;0.40;;;;;;;18.08;100.00;98032.58;1740173;81;21019;-71
2022/06/22 10:35:54;;;;;;;2.58;0.33;;;;;;;17.99;100.00;98045.20;1715665;82;21061;-68
2022/06/22 10:38:31;;;;;;;2.52;0.40;;;;;;;18.06;100.00;98048.68;1691149;81;21046;-68
2022/06/22 10:48:16;;;;;;;1.35;0.55;;;;;;;17.77;100.00;98070.66;1725431;82;21026;-69
2022/06/22 10:51:17;;;;;;;2.75;0.60;;;;;;;17.39;100.00;98076.21;1718144;81;21048;-67
2022/06/22 10:54:24;;;;;;;1.47;0.55;;;;;;;17.19;100.00;98074.55;1709809;82;21031;-69
2022/06/22 10:57:17;;;;;;;1.17;0.50;;;;;;;17.17;100.00;98080.98;1742839;81;21636;-67
2022/06/22 10:59:55;;;;;;;1.37;0.50;;;;;;;17.24;100.00;98081.17;1750263;81;21032;-62
2022/06/22 11:03:02;;;;;;;1.32;0.40;;;;;;;17.20;100.00;98090.47;1731105;81;20983;-62
2022/06/22 11:06:13;;;;;;;1.17;0.50;;;;;;;17.26;100.00;98086.30;1745036;81;21023;-61
2022/06/22 11:09:14;;;;;;;0.85;0.42;;;;;;;17.19;100.00;98088.30;1743096;81;21070;-66
2022/06/22 11:12:19;;;;;;;0.65;0.50;;;;;;;17.20;100.00;98087.15;1742069;81;21561;-62
2022/06/22 11:15:27;;;;;;;1.67;0.62;;;;;;;17.17;100.00;98091.98;1709639;81;21043;-65
2022/06/22 11:18:36;;;;;;;0.90;0.50;;;;;;;17.17;100.00;98102.98;1736748;81;21490;-66
2022/06/22 11:21:07;;;;;;;2.45;0.60;;;;;;;17.13;100.00;98108.97;1739581;81;21503;-63
2022/06/22 11:23:58;;;;;;;2.92;0.70;;;;;;;17.05;100.00;98107.75;1707200;83;21082;-62
2022/06/22 11:33:19;;;;;;;1.42;0.40;;;;;;;17.82;100.00;98115.20;1741865;82;21021;-63
2022/06/22 11:36:22;;;;;;;3.45;0.72;;;;;;;18.41;100.00;98114.14;1742919;81;21023;-62
2022/06/22 11:39:03;;;;;;;3.33;0.78;;;;;;;18.66;100.00;98112.73;1743640;81;21029;-58
2022/06/22 11:41:49;;;;;;;1.77;0.60;;;;;;;18.60;100.00;98118.90;1745589;81;21636;-61
2022/06/22 11:48:05;;;;;;;1.57;0.40;;;;;;;18.39;100.00;98121.38;1742865;81;21636;-60
2022/06/22 11:50:56;;;;;;;2.08;0.50;;;;;;;18.16;100.00;98110.06;1724103;81;21014;-59
2022/06/22 11:53:50;;;;;;;1.15;0.40;;;;;;;18.08;100.00;98117.94;1726255;82;21033;-56
2022/06/22 11:56:37;;;;;;;2.83;0.40;;;;;;;17.96;100.00;98120.23;1746835;81;21076;-59
2022/06/22 11:59:22;;;;;;;;;;;;;;;17.99;100.00;98128.37;1748720;81;21019;-60
2022/06/22 12:02:45;;;;;;;1.70;0.50;;;;;;;17.88;100.00;98118.49;1744833;81;20103;-59
2022/06/22 12:05:23;;;;;;;0.75;0.50;;;;;;;17.65;100.00;98123.84;1744467;81;21040;-61
2022/06/22 12:07:55;;;;;;;1.10;0.50;;;;;;;17.56;100.00;98127.91;1741274;81;20938;-59
2022/06/22 12:10:47;;;;;;;1.32;0.40;;;;;;;17.54;100.00;98121.95;1733937;81;21023;-59
2022/06/22 12:13:34;;;;;;;1.72;0.53;;;;;;;17.44;100.00;98126.05;1736408;81;21527;-58
2022/06/22 12:16:27;;;;;;;1.75;0.60;;;;;;;17.32;100.00;98128.90;1737548;81;21568;-60
2022/06/22 12:19:18;;;;;;;1.47;0.42;;;;;;;17.19;100.00;98132.29;1644010;82;21071;-59
2022/06/22 12:21:59;;;;;;;1.55;0.60;;;;;;;17.24;100.00;98144.41;1740633;81;21020;-58
2022/06/22 12:24:54;;;;;;;1.27;0.50;;;;;;;17.26;100.00;98150.34;1739004;82;20970;-59
2022/06/22 12:27:30;;;;;;;2.27;0.80;;;;;;;17.24;100.00;98144.98;1728153;81;21000;-59
2022/06/22 12:30:30;;;;;;;;;;;;;;;17.22;100.00;98154.15;1737548;81;21000;-58
2022/06/22 12:33:10;;;;;;;2.20;0.50;;;;;;;17.31;100.00;98141.84;1696000;81;20422;-59
2022/06/22 12:35:50;;;;;;;3.42;0.50;;;;;;;17.32;100.00;98146.77;1735916;81;21023;-58
2022/06/22 12:38:27;;;;;;;1.82;0.60;;;;;;;17.41;100.00;98146.02;1746358;82;21024;-60
2022/06/22 12:41:04;;;;;;;1.27;0.68;;;;;;;17.49;100.00;98146.99;1749171;81;21018;-59
2022/06/22 12:43:52;;;;;;;2.12;0.60;;;;;;;17.53;100.00;98143.76;1745946;81;21043;-59
2022/06/22 12:46:38;;;;;;;;;;;;;;;17.49;100.00;98142.87;1751236;80;21597;-60
2022/06/22 12:49:38;;;;;;;1.52;0.60;;;;;;;17.49;100.00;98148.37;1734342;81;20163;-59
2022/06/22 12:52:15;;;;;;;1.45;0.60;;;;;;;17.54;100.00;98150.83;1729363;82;21098;-59
2022/06/22 12:54:50;;;;;;;1.70;0.70;;;;;;;17.61;100.00;98149.09;1730646;81;21040;-59
2022/06/22 12:57:21;;;;;;;1.92;0.80;;;;;;;17.72;100.00;98146.59;1742047;80;21067;-60